Etusivu
METAR-TAF:

METAR-TAF

Lentoasemat :

Saint-Nazaire, Ranska

Leveyspiiri: 47-19N, Pituuspiiri: 002-10W, korkeus merenpinnasta: 3 m

Tämänhetkinen sää

Tämä raportti tehtiin 29 minuuttia sitten, kello 05.30 UTC
Tuuli 6 kn koillisesta
Lämpötila 8°C
Kosteus 87%
Ilmanpaine 1026 hPa
Näkyvyys: 6000 m

METAR: LFRZ 210530Z AUTO 05006KT 6000 NSC 08/06 Q1026 NOSIG

Aika: 07:59 (05:59 UTC)

Sääennuste

Tämä raportti tehtiin 59 minuuttia sitten, kello 05.00 UTC
Ennuste voimassa 21. päivästä klo 06 UTC - 22. päivään klo 06 UTC
Tuuli 7 kn koillisesta
Näkyvyys 10 km tai enemmän
ei pilviä alle 1500 m:ssä eikä cumulonimbus-pilviä
Tulossa
22. päivästä klo 01 UTC - 22. päivään klo 03 UTC
Hajonneita pilviä 400 ft:n korkeudessa

TAF: LFRZ 210500Z 2106/2206 05007KT CAVOK BECMG 2201/2203 BKN004

Säähavainnot ja -ennusteet yli 4000 lentoasemalta (METAR- ja TAF-raportit).

Käytössä olevat sääasemat on merkitty karttaan keltaisilla ja punaisilla pisteillä.

Aseta hiiri pisteen päälle nähdäksesi sääaseman nimen.

Klikkaa sitten nähdäksesi säähavainnot ja -ennusteet.

Kartan vaihtaminen: klikkaa mustalla rastilla varustettuja vihreitä pisteitä, niin voit zoomata sisään; viivalla varustettua vihreää pistettä, niin voit zoomata ulos tai vihreitä nuolia, niin pääset viereisille kartoille.


METAR-TAF: